Time;durP1;ratioP1;P1;durP2;ratioP2;P2;SDS_P1;SDS_P2;PMS_P1;PMS_P2;Temp;Humidity;BMP_temperature;BMP_pressure;BME280_temperature;BME280_humidity;BME280_pressure;Samples;Min_cycle;Max_cycle;Signal;HPM_P1;HPM_P2
2022/05/10 00:01:56;;;;;;;;;;;;;;;;;;5100167;28;19924;-62
2022/05/10 00:04:22;;;;;;;;;;;;;;;;;;5085209;28;19974;-63
2022/05/10 00:06:48;;;;;;;;;;;;;;;;;;5085316;28;19924;-62
2022/05/10 00:09:14;;;;;;;;;;;;;;;;;;5085274;28;19927;-62
2022/05/10 00:11:40;;;;;;;;;;;;;;;;;;5101442;28;19919;-63
2022/05/10 00:14:06;;;;;;;;;;;;;;;;;;5104066;28;20215;-63
2022/05/10 00:16:32;;;;;;;;;;;;;;;;;;5104280;28;20248;-62
2022/05/10 00:18:58;;;;;;;;;;;;;;;;;;5105326;28;19935;-64
2022/05/10 00:21:24;;;;;;;;;;;;;;;;;;5101918;28;19919;-63
2022/05/10 00:23:50;;;;;;;;;;;;;;;;;;5105443;28;19920;-63
2022/05/10 00:26:17;;;;;;;;;;;;;;;;;;5105330;28;19927;-62
2022/05/10 00:28:43;;;;;;;;;;;;;;;;;;5105196;28;19985;-63
2022/05/10 00:31:09;;;;;;;;;;;;;;;;;;5103592;28;19924;-63
2022/05/10 00:33:35;;;;;;;;;;;;;;;;;;5105033;28;19927;-62
2022/05/10 00:36:01;;;;;;;;;;;;;;;;;;5105333;28;20237;-63
2022/05/10 00:38:27;;;;;;;;;;;;;;;;;;5103970;28;20379;-62
2022/05/10 00:40:53;;;;;;;;;;;;;;;;;;5093758;28;19927;-63
2022/05/10 00:43:19;;;;;;;;;;;;;;;;;;5084957;28;19936;-63
2022/05/10 00:45:45;;;;;;;;;;;;;;;;;;5083452;28;19928;-63
2022/05/10 00:48:11;;;;;;;;;;;;;;;;;;5084781;28;19921;-63
2022/05/10 00:50:37;;;;;;;;;;;;;;;;;;5091286;28;19946;-62
2022/05/10 00:53:03;;;;;;;;;;;;;;;;;;5105119;28;19920;-63
2022/05/10 00:55:29;;;;;;;;;;;;;;;;;;5105102;28;19924;-63
2022/05/10 00:57:55;;;;;;;;;;;;;;;;;;5109041;28;19931;-63
2022/05/10 01:00:21;;;;;;;;;;;;;;;;;;5103846;28;19931;-63
2022/05/10 01:02:47;;;;;;;;;;;;;;;;;;5100419;28;19920;-63
2022/05/10 01:05:14;;;;;;;;;;;;;;;;;;5088513;28;19920;-63
2022/05/10 01:07:40;;;;;;;;;;;;;;;;;;5088710;28;19921;-63
2022/05/10 01:10:06;;;;;;;;;;;;;;;;;;5088297;28;19927;-63
2022/05/10 01:12:32;;;;;;;;;;;;;;;;;;5105250;28;19920;-61
2022/05/10 01:14:58;;;;;;;;;;;;;;;;;;5108576;28;19935;-62
2022/05/10 01:17:24;;;;;;;;;;;;;;;;;;5108644;28;19924;-62
2022/05/10 01:19:50;;;;;;;;;;;;;;;;;;5108439;28;20364;-63
2022/05/10 01:22:16;;;;;;;;;;;;;;;;;;5105139;28;20363;-63
2022/05/10 01:24:42;;;;;;;;;;;;;;;;;;5108527;28;19920;-62
2022/05/10 01:27:08;;;;;;;;;;;;;;;;;;5108496;28;19924;-63
2022/05/10 01:29:34;;;;;;;;;;;;;;;;;;5108271;28;19981;-63
2022/05/10 01:34:44;;;;;;;;;;;;;;;;;;5103980;28;19989;-63
2022/05/10 01:37:10;;;;;;;;;;;;;;;;;;5108242;28;19920;-62
2022/05/10 01:39:36;;;;;;;;;;;;;;;;;;5108268;28;19928;-62
2022/05/10 01:42:02;;;;;;;;;;;;;;;;;;5094387;28;19924;-63
2022/05/10 01:44:28;;;;;;;;;;;;;;;;;;5106755;28;19924;-62
2022/05/10 01:46:54;;;;;;;;;;;;;;;;;;5107952;28;19983;-63
2022/05/10 01:49:20;;;;;;;;;;;;;;;;;;5107954;28;20272;-62
2022/05/10 01:51:46;;;;;;;;;;;;;;;;;;5106153;28;19920;-62
2022/05/10 01:54:12;;;;;;;;;;;;;;;;;;5107891;28;19927;-61
2022/05/10 01:56:39;;;;;;;;;;;;;;;;;;5107656;28;20469;-63
2022/05/10 01:59:04;;;;;;;;;;;;;;;;;;5107620;28;19927;-62
2022/05/10 02:01:30;;;;;;;;;;;;;;;;;;5106086;28;19983;-63
2022/05/10 02:03:57;;;;;;;;;;;;;;;;;;5107396;28;20007;-63
2022/05/10 02:06:23;;;;;;;;;;;;;;;;;;5086210;28;19921;-62
2022/05/10 02:08:49;;;;;;;;;;;;;;;;;;5085875;28;19924;-63
2022/05/10 02:11:15;;;;;;;;;;;;;;;;;;5091371;28;19927;-63
2022/05/10 02:13:41;;;;;;;;;;;;;;;;;;5107459;28;19927;-63
2022/05/10 02:16:07;;;;;;;;;;;;;;;;;;5107468;28;19919;-63
2022/05/10 02:18:33;;;;;;;;;;;;;;;;;;5107502;28;19960;-62
2022/05/10 02:20:59;;;;;;;;;;;;;;;;;;5104651;28;19928;-64
2022/05/10 02:23:25;;;;;;;;;;;;;;;;;;5106198;28;19920;-62
2022/05/10 02:25:51;;;;;;;;;;;;;;;;;;5107335;28;19920;-62
2022/05/10 02:28:17;;;;;;;;;;;;;;;;;;5107341;28;19942;-63
2022/05/10 02:30:44;;;;;;;;;;;;;;;;;;5105189;28;19920;-62
2022/05/10 02:33:10;;;;;;;;;;;;;;;;;;5086819;28;19920;-63
2022/05/10 02:35:36;;;;;;;;;;;;;;;;;;5086929;28;19928;-62
2022/05/10 02:38:02;;;;;;;;;;;;;;;;;;5086797;28;19927;-62
2022/05/10 02:40:28;;;;;;;;;;;;;;;;;;5096451;28;19987;-62
2022/05/10 02:42:54;;;;;;;;;;;;;;;;;;5106879;28;19927;-62
2022/05/10 02:45:20;;;;;;;;;;;;;;;;;;5106677;28;19920;-63
2022/05/10 02:47:46;;;;;;;;;;;;;;;;;;5107086;28;19977;-62
2022/05/10 02:50:12;;;;;;;;;;;;;;;;;;5103607;28;19920;-61
2022/05/10 02:52:39;;;;;;;;;;;;;;;;;;5106649;28;19951;-62
2022/05/10 02:55:05;;;;;;;;;;;;;;;;;;5106948;28;19927;-62
2022/05/10 02:57:31;;;;;;;;;;;;;;;;;;5106703;28;19920;-63
2022/05/10 02:59:57;;;;;;;;;;;;;;;;;;5104850;28;19919;-62
2022/05/10 03:02:22;;;;;;;;;;;;;;;;;;5105155;28;19924;-63
2022/05/10 03:04:48;;;;;;;;;;;;;;;;;;5106537;28;19924;-61
2022/05/10 03:07:14;;;;;;;;;;;;;;;;;;5106601;28;19935;-63
2022/05/10 03:09:40;;;;;;;;;;;;;;;;;;5106512;28;19927;-62
2022/05/10 03:12:06;;;;;;;;;;;;;;;;;;5100651;28;19920;-62
2022/05/10 03:14:32;;;;;;;;;;;;;;;;;;5106164;28;19965;-63
2022/05/10 03:16:58;;;;;;;;;;;;;;;;;;5106474;28;20300;-62
2022/05/10 03:19:24;;;;;;;;;;;;;;;;;;5105946;28;19931;-62
2022/05/10 03:21:50;;;;;;;;;;;;;;;;;;5106341;28;19920;-63
2022/05/10 03:24:16;;;;;;;;;;;;;;;;;;5102430;28;19927;-63
2022/05/10 03:26:42;;;;;;;;;;;;;;;;;;5106261;28;19930;-63
2022/05/10 03:29:08;;;;;;;;;;;;;;;;;;5105243;28;20109;-62
2022/05/10 03:31:34;;;;;;;;;;;;;;;;;;5085516;28;20344;-62
2022/05/10 03:36:45;;;;;;;;;;;;;;;;;;5106162;28;19926;-62
2022/05/10 03:39:11;;;;;;;;;;;;;;;;;;5105988;28;19920;-62
2022/05/10 03:41:37;;;;;;;;;;;;;;;;;;5105888;28;19970;-63
2022/05/10 03:44:03;;;;;;;;;;;;;;;;;;5104389;28;19969;-63
2022/05/10 03:46:29;;;;;;;;;;;;;;;;;;5105893;28;19936;-63
2022/05/10 03:48:55;;;;;;;;;;;;;;;;;;5105653;28;19926;-63
2022/05/10 03:51:21;;;;;;;;;;;;;;;;;;5105682;28;19920;-63
2022/05/10 03:53:48;;;;;;;;;;;;;;;;;;5103581;28;20006;-62
2022/05/10 03:56:14;;;;;;;;;;;;;;;;;;5105550;28;19949;-63
2022/05/10 03:58:40;;;;;;;;;;;;;;;;;;5104289;28;19920;-63
2022/05/10 04:01:08;;;;;;;;;;;;;;;;;;5105640;28;19927;-62
2022/05/10 04:03:35;;;;;;;;;;;;;;;;;;5103650;28;19920;-62
2022/05/10 04:06:00;;;;;;;;;;;;;;;;;;5105607;28;19924;-63
2022/05/10 04:08:27;;;;;;;;;;;;;;;;;;5105476;28;19919;-62
2022/05/10 04:10:53;;;;;;;;;;;;;;;;;;5105346;28;19926;-62
2022/05/10 04:13:19;;;;;;;;;;;;;;;;;;5103587;28;19928;-63
2022/05/10 04:15:45;;;;;;;;;;;;;;;;;;5105376;28;19920;-63
2022/05/10 04:18:11;;;;;;;;;;;;;;;;;;5105357;28;19920;-63
2022/05/10 04:20:37;;;;;;;;;;;;;;;;;;5105445;28;19981;-63
2022/05/10 04:23:03;;;;;;;;;;;;;;;;;;5100320;28;19944;-63
2022/05/10 04:25:29;;;;;;;;;;;;;;;;;;5117480;28;19992;-63
2022/05/10 04:27:55;;;;;;;;;;;;;;;;;;5084917;28;19921;-63
2022/05/10 04:30:21;;;;;;;;;;;;;;;;;;5085044;28;19927;-63
2022/05/10 04:32:47;;;;;;;;;;;;;;;;;;5090426;28;19920;-62
2022/05/10 04:35:13;;;;;;;;;;;;;;;;;;5109474;28;19975;-63
2022/05/10 04:37:39;;;;;;;;;;;;;;;;;;5109411;28;19977;-63
2022/05/10 04:42:52;;;;;;;;;;;;;;;;;;5106358;28;19929;-62
2022/05/10 04:45:18;;;;;;;;;;;;;;;;;;5109054;28;20286;-62
2022/05/10 04:47:44;;;;;;;;;;;;;;;;;;5109334;28;19920;-62
2022/05/10 04:50:10;;;;;;;;;;;;;;;;;;5074999;28;19921;-63
2022/05/10 04:52:36;;;;;;;;;;;;;;;;;;5068904;28;19921;-63
2022/05/10 04:55:02;;;;;;;;;;;;;;;;;;5109051;28;19946;-63
2022/05/10 04:57:28;;;;;;;;;;;;;;;;;;5109051;28;19938;-62
2022/05/10 04:59:54;;;;;;;;;;;;;;;;;;5108807;28;19920;-62
2022/05/10 05:02:20;;;;;;;;;;;;;;;;;;5108746;28;19919;-64
2022/05/10 05:04:46;;;;;;;;;;;;;;;;;;5105944;28;20294;-63
2022/05/10 05:07:12;;;;;;;;;;;;;;;;;;5108839;28;19942;-64
2022/05/10 05:09:38;;;;;;;;;;;;;;;;;;5108575;28;20006;-62
2022/05/10 05:12:04;;;;;;;;;;;;;;;;;;5108919;28;19920;-62
2022/05/10 05:14:31;;;;;;;;;;;;;;;;;;5105959;28;20271;-63
2022/05/10 05:16:57;;;;;;;;;;;;;;;;;;5081815;28;19952;-63
2022/05/10 05:19:23;;;;;;;;;;;;;;;;;;5085353;28;19943;-62
2022/05/10 05:21:49;;;;;;;;;;;;;;;;;;5084764;28;19924;-62
2022/05/10 05:24:15;;;;;;;;;;;;;;;;;;5085085;28;19952;-64
2022/05/10 05:26:41;;;;;;;;;;;;;;;;;;5094926;28;20010;-63
2022/05/10 05:29:07;;;;;;;;;;;;;;;;;;5099761;28;19920;-63
2022/05/10 05:31:33;;;;;;;;;;;;;;;;;;5087018;28;20260;-63
2022/05/10 05:33:59;;;;;;;;;;;;;;;;;;5086305;28;19924;-62
2022/05/10 05:36:25;;;;;;;;;;;;;;;;;;5086821;28;19931;-62
2022/05/10 05:38:51;;;;;;;;;;;;;;;;;;5085266;28;19920;-63
2022/05/10 05:41:17;;;;;;;;;;;;;;;;;;5085749;28;19929;-63
2022/05/10 05:43:43;;;;;;;;;;;;;;;;;;5085391;28;19927;-63
2022/05/10 05:46:09;;;;;;;;;;;;;;;;;;5086529;28;19924;-63
2022/05/10 05:48:35;;;;;;;;;;;;;;;;;;5086398;28;20019;-63
2022/05/10 05:51:01;;;;;;;;;;;;;;;;;;5086862;28;19920;-63
2022/05/10 05:53:27;;;;;;;;;;;;;;;;;;5085702;28;19935;-63
2022/05/10 05:55:53;;;;;;;;;;;;;;;;;;5086543;28;19962;-63
2022/05/10 05:58:19;;;;;;;;;;;;;;;;;;5081274;28;20553;-62
2022/05/10 06:00:45;;;;;;;;;;;;;;;;;;5076231;28;20003;-62
2022/05/10 06:03:11;;;;;;;;;;;;;;;;;;5091777;28;19962;-62
2022/05/10 06:05:37;;;;;;;;;;;;;;;;;;5077287;28;20652;-62
2022/05/10 06:08:06;;;;;;;;;;;;;;;;;;5083853;28;20376;-62
2022/05/10 06:10:32;;;;;;;;;;;;;;;;;;5086288;28;19924;-62
2022/05/10 06:12:58;;;;;;;;;;;;;;;;;;5079633;28;19932;-63
2022/05/10 06:15:24;;;;;;;;;;;;;;;;;;5086254;28;19920;-63
2022/05/10 06:17:50;;;;;;;;;;;;;;;;;;5087096;28;19927;-62
2022/05/10 06:20:16;;;;;;;;;;;;;;;;;;5082431;28;20407;-62
2022/05/10 06:22:44;;;;;;;;;;;;;;;;;;5083432;28;19931;-63
2022/05/10 06:25:10;;;;;;;;;;;;;;;;;;5077810;28;19956;-62
2022/05/10 06:27:36;;;;;;;;;;;;;;;;;;5069541;28;19943;-63
2022/05/10 06:30:02;;;;;;;;;;;;;;;;;;5074525;28;19921;-63
2022/05/10 06:32:29;;;;;;;;;;;;;;;;;;5097004;28;19920;-62
2022/05/10 06:34:58;;;;;;;;;;;;;;;;;;5088295;28;19980;-63
2022/05/10 06:40:08;;;;;;;;;;;;;;;;;;5086738;28;20544;-63
2022/05/10 06:42:34;;;;;;;;;;;;;;;;;;5098655;28;19920;-63
2022/05/10 06:45:00;;;;;;;;;;;;;;;;;;5106966;28;19951;-61
2022/05/10 06:47:26;;;;;;;;;;;;;;;;;;5106908;28;19953;-62
2022/05/10 06:49:52;;;;;;;;;;;;;;;;;;5106979;28;19920;-64
2022/05/10 06:52:18;;;;;;;;;;;;;;;;;;5095816;28;19923;-63
2022/05/10 06:54:44;;;;;;;;;;;;;;;;;;5104982;28;19924;-63
2022/05/10 06:57:10;;;;;;;;;;;;;;;;;;5106842;28;20387;-63
2022/05/10 06:59:36;;;;;;;;;;;;;;;;;;5106662;28;19919;-63
2022/05/10 07:02:02;;;;;;;;;;;;;;;;;;5105113;28;19920;-63
2022/05/10 07:04:28;;;;;;;;;;;;;;;;;;5105391;28;20088;-62
2022/05/10 07:06:54;;;;;;;;;;;;;;;;;;5106607;28;19974;-62
2022/05/10 07:09:21;;;;;;;;;;;;;;;;;;5106305;28;20269;-63
2022/05/10 07:11:47;;;;;;;;;;;;;;;;;;5103528;28;19943;-63
2022/05/10 07:14:13;;;;;;;;;;;;;;;;;;5106226;28;20403;-63
2022/05/10 07:16:39;;;;;;;;;;;;;;;;;;5106450;28;19931;-63
2022/05/10 07:19:05;;;;;;;;;;;;;;;;;;5106432;28;19920;-62
2022/05/10 07:21:31;;;;;;;;;;;;;;;;;;5105459;28;19927;-63
2022/05/10 07:23:57;;;;;;;;;;;;;;;;;;5101408;28;19920;-63
2022/05/10 07:26:23;;;;;;;;;;;;;;;;;;5106127;28;19942;-63
2022/05/10 07:28:49;;;;;;;;;;;;;;;;;;5106217;28;19928;-63
2022/05/10 07:31:15;;;;;;;;;;;;;;;;;;5092120;28;19966;-64
2022/05/10 07:33:41;;;;;;;;;;;;;;;;;;5085874;28;19928;-63
2022/05/10 07:36:28;;;;;;;;;;;;;;;;;;5085710;28;19931;-62
2022/05/10 07:38:54;;;;;;;;;;;;;;;;;;5085359;28;20387;-62
2022/05/10 07:41:23;;;;;;;;;;;;;;;;;;5084713;28;19987;-62
2022/05/10 07:43:49;;;;;;;;;;;;;;;;;;5085502;28;20021;-63
2022/05/10 07:46:15;;;;;;;;;;;;;;;;;;5085447;28;19920;-63
2022/05/10 07:48:41;;;;;;;;;;;;;;;;;;5085350;28;19974;-64
2022/05/10 07:51:07;;;;;;;;;;;;;;;;;;5094121;28;20379;-62
2022/05/10 07:53:33;;;;;;;;;;;;;;;;;;5105739;28;19923;-63
2022/05/10 07:55:59;;;;;;;;;;;;;;;;;;5105934;28;19974;-63
2022/05/10 07:58:25;;;;;;;;;;;;;;;;;;5105610;28;19920;-63
2022/05/10 08:00:51;;;;;;;;;;;;;;;;;;5103749;28;19959;-63
2022/05/10 08:03:17;;;;;;;;;;;;;;;;;;5105614;28;19924;-63
2022/05/10 08:05:43;;;;;;;;;;;;;;;;;;5105642;28;19920;-63
2022/05/10 08:08:09;;;;;;;;;;;;;;;;;;5105280;28;19928;-63
2022/05/10 08:10:35;;;;;;;;;;;;;;;;;;5103511;28;19942;-63
2022/05/10 08:13:01;;;;;;;;;;;;;;;;;;5104227;28;19920;-62
2022/05/10 08:15:27;;;;;;;;;;;;;;;;;;5100422;28;19920;-63
2022/05/10 08:17:53;;;;;;;;;;;;;;;;;;5064915;28;19963;-63
2022/05/10 08:20:19;;;;;;;;;;;;;;;;;;5088996;28;19931;-63
2022/05/10 08:22:45;;;;;;;;;;;;;;;;;;5105421;28;19920;-63
2022/05/10 08:25:11;;;;;;;;;;;;;;;;;;5101365;28;19951;-63
2022/05/10 08:27:37;;;;;;;;;;;;;;;;;;5095549;28;19924;-63
2022/05/10 08:30:03;;;;;;;;;;;;;;;;;;5097541;28;19987;-63
2022/05/10 08:32:29;;;;;;;;;;;;;;;;;;5105055;28;20006;-63
2022/05/10 08:34:55;;;;;;;;;;;;;;;;;;5105333;28;19920;-63
2022/05/10 08:37:21;;;;;;;;;;;;;;;;;;5101824;28;19975;-63
2022/05/10 08:39:47;;;;;;;;;;;;;;;;;;5105217;28;19959;-64
2022/05/10 08:42:13;;;;;;;;;;;;;;;;;;5105192;28;19927;-63
2022/05/10 08:44:40;;;;;;;;;;;;;;;;;;5094019;28;19925;-63
2022/05/10 08:47:07;;;;;;;;;;;;;;;;;;5089953;28;20015;-63
2022/05/10 08:49:33;;;;;;;;;;;;;;;;;;5086080;28;19923;-62
2022/05/10 08:51:59;;;;;;;;;;;;;;;;;;5085937;28;19923;-63
2022/05/10 08:54:25;;;;;;;;;;;;;;;;;;5105112;28;19920;-63
2022/05/10 08:56:51;;;;;;;;;;;;;;;;;;5101402;28;19920;-64
2022/05/10 08:59:17;;;;;;;;;;;;;;;;;;5104951;28;19920;-64
2022/05/10 09:01:43;;;;;;;;;;;;;;;;;;5104853;28;19931;-63
2022/05/10 09:04:09;;;;;;;;;;;;;;;;;;5105092;28;19920;-63
2022/05/10 09:06:35;;;;;;;;;;;;;;;;;;5086043;28;19928;-63
2022/05/10 09:09:01;;;;;;;;;;;;;;;;;;5082213;28;19916;-63
2022/05/10 09:11:27;;;;;;;;;;;;;;;;;;5071331;28;19932;-63
2022/05/10 09:13:53;;;;;;;;;;;;;;;;;;5081051;28;20034;-63
2022/05/10 09:16:19;;;;;;;;;;;;;;;;;;5078922;28;20465;-63
2022/05/10 09:18:46;;;;;;;;;;;;;;;;;;5087986;28;19953;-63
2022/05/10 09:21:12;;;;;;;;;;;;;;;;;;5089931;28;19940;-63
2022/05/10 09:23:39;;;;;;;;;;;;;;;;;;5085494;28;19924;-63
2022/05/10 09:26:05;;;;;;;;;;;;;;;;;;5083051;28;19978;-63
2022/05/10 09:28:31;;;;;;;;;;;;;;;;;;5083236;28;20003;-63
2022/05/10 09:36:26;;;;;;;;;;;;;;;;;;5072781;28;19979;-63
2022/05/10 09:38:52;;;;;;;;;;;;;;;;;;5073934;28;20161;-63
2022/05/10 09:41:18;;;;;;;;;;;;;;;;;;5073756;28;19932;-63
2022/05/10 09:43:44;;;;;;;;;;;;;;;;;;5070430;28;19943;-63
2022/05/10 09:46:11;;;;;;;;;;;;;;;;;;5071022;28;19924;-64
2022/05/10 09:48:37;;;;;;;;;;;;;;;;;;5083281;28;19929;-65
2022/05/10 09:51:03;;;;;;;;;;;;;;;;;;5090806;28;19943;-63
2022/05/10 09:53:29;;;;;;;;;;;;;;;;;;5083997;28;19928;-63
2022/05/10 09:55:56;;;;;;;;;;;;;;;;;;5086401;28;19935;-64
2022/05/10 09:58:22;;;;;;;;;;;;;;;;;;5083160;28;19959;-63
2022/05/10 10:00:52;;;;;;;;;;;;;;;;;;5083589;28;19920;-64
2022/05/10 10:03:18;;;;;;;;;;;;;;;;;;5084090;28;19928;-63
2022/05/10 10:05:45;;;;;;;;;;;;;;;;;;5082180;28;19956;-63
2022/05/10 10:08:11;;;;;;;;;;;;;;;;;;5072334;28;20275;-61
2022/05/10 10:10:37;;;;;;;;;;;;;;;;;;5077441;28;19928;-62
2022/05/10 10:13:03;;;;;;;;;;;;;;;;;;5088681;28;20387;-65
2022/05/10 10:15:30;;;;;;;;;;;;;;;;;;5077304;28;19932;-66
2022/05/10 10:17:56;;;;;;;;;;;;;;;;;;5090249;28;19927;-67
2022/05/10 10:20:22;;;;;;;;;;;;;;;;;;5073718;28;19928;-67
2022/05/10 10:22:48;;;;;;;;;;;;;;;;;;5089090;28;19920;-68
2022/05/10 10:25:14;;;;;;;;;;;;;;;;;;5125927;27;19928;-65
2022/05/10 10:27:40;;;;;;;;;;;;;;;;;;5083988;28;19929;-61
2022/05/10 10:30:06;;;;;;;;;;;;;;;;;;5076917;28;19928;-63
2022/05/10 10:32:33;;;;;;;;;;;;;;;;;;5073138;28;19924;-63
2022/05/10 10:34:59;;;;;;;;;;;;;;;;;;5078718;28;19928;-65
2022/05/10 10:37:25;;;;;;;;;;;;;;;;;;5083492;28;19932;-62
2022/05/10 10:39:51;;;;;;;;;;;;;;;;;;5072186;28;20372;-61
2022/05/10 10:42:17;;;;;;;;;;;;;;;;;;5073479;28;19920;-61
2022/05/10 10:44:43;;;;;;;;;;;;;;;;;;5071286;28;19920;-61
2022/05/10 10:47:09;;;;;;;;;;;;;;;;;;5071710;28;19928;-58
2022/05/10 10:49:35;;;;;;;;;;;;;;;;;;5080500;28;19925;-59
2022/05/10 10:52:01;;;;;;;;;;;;;;;;;;5070481;28;19927;-65
2022/05/10 10:54:29;;;;;;;;;;;;;;;;;;5073242;28;20407;-64
2022/05/10 10:56:55;;;;;;;;;;;;;;;;;;5075753;28;19920;-61
2022/05/10 10:59:21;;;;;;;;;;;;;;;;;;5079717;28;20783;-62
2022/05/10 11:01:50;;;;;;;;;;;;;;;;;;5073139;28;19920;-61
2022/05/10 11:04:16;;;;;;;;;;;;;;;;;;5071192;28;19921;-61
2022/05/10 11:06:42;;;;;;;;;;;;;;;;;;5077002;28;19927;-61
2022/05/10 11:09:08;;;;;;;;;;;;;;;;;;5074881;28;19928;-62
2022/05/10 11:11:34;;;;;;;;;;;;;;;;;;5075478;28;19939;-62
2022/05/10 11:14:00;;;;;;;;;;;;;;;;;;5069905;28;19925;-62
2022/05/10 11:16:26;;;;;;;;;;;;;;;;;;5071880;28;20376;-61
2022/05/10 11:18:52;;;;;;;;;;;;;;;;;;5075605;28;19943;-61
2022/05/10 11:21:19;;;;;;;;;;;;;;;;;;5077699;28;19928;-62
2022/05/10 11:23:45;;;;;;;;;;;;;;;;;;5079657;28;20404;-60
2022/05/10 11:26:11;;;;;;;;;;;;;;;;;;5078454;28;19920;-62
2022/05/10 11:28:37;;;;;;;;;;;;;;;;;;5078247;28;19928;-62
2022/05/10 11:31:03;;;;;;;;;;;;;;;;;;5076680;28;19920;-61
2022/05/10 11:33:29;;;;;;;;;;;;;;;;;;5073463;28;19925;-63
2022/05/10 11:35:58;;;;;;;;;;;;;;;;;;5068264;28;19927;-62
2022/05/10 11:38:24;;;;;;;;;;;;;;;;;;5067383;28;19942;-62
2022/05/10 11:40:50;;;;;;;;;;;;;;;;;;5068403;28;19960;-62
2022/05/10 11:43:16;;;;;;;;;;;;;;;;;;5073727;28;20309;-62
2022/05/10 11:45:42;;;;;;;;;;;;;;;;;;5077322;28;19921;-62
2022/05/10 11:48:08;;;;;;;;;;;;;;;;;;5071530;28;19920;-63
2022/05/10 11:50:34;;;;;;;;;;;;;;;;;;5069033;28;20384;-61
2022/05/10 11:53:00;;;;;;;;;;;;;;;;;;5066245;28;19928;-61
2022/05/10 11:55:26;;;;;;;;;;;;;;;;;;5064373;28;19956;-63
2022/05/10 11:57:54;;;;;;;;;;;;;;;;;;5067378;28;19925;-62
2022/05/10 12:00:20;;;;;;;;;;;;;;;;;;5062555;28;19924;-61
2022/05/10 12:02:46;;;;;;;;;;;;;;;;;;5062215;28;20403;-62
2022/05/10 12:05:13;;;;;;;;;;;;;;;;;;5064483;28;19929;-61
2022/05/10 12:07:39;;;;;;;;;;;;;;;;;;5066968;28;19921;-65
2022/05/10 12:10:05;;;;;;;;;;;;;;;;;;5064534;28;19947;-64
2022/05/10 12:12:31;;;;;;;;;;;;;;;;;;5066929;28;19928;-65
2022/05/10 12:23:12;;;;;;;;;;;;;;;;;;5069403;28;19920;-61
2022/05/10 12:25:38;;;;;;;;;;;;;;;;;;5080659;28;19947;-61
2022/05/10 12:28:04;;;;;;;;;;;;;;;;;;5083062;28;19924;-63
2022/05/10 12:30:30;;;;;;;;;;;;;;;;;;5078334;28;19928;-64
2022/05/10 12:32:57;;;;;;;;;;;;;;;;;;5074742;28;19927;-62
2022/05/10 12:35:23;;;;;;;;;;;;;;;;;;5076783;28;20006;-64
2022/05/10 12:37:49;;;;;;;;;;;;;;;;;;5072532;28;19928;-66
2022/05/10 12:40:15;;;;;;;;;;;;;;;;;;5080742;28;19925;-63
2022/05/10 12:42:41;;;;;;;;;;;;;;;;;;5072421;28;19981;-62
2022/05/10 12:45:07;;;;;;;;;;;;;;;;;;5067143;28;21234;-64
2022/05/10 12:47:33;;;;;;;;;;;;;;;;;;5065920;28;19977;-63
2022/05/10 12:49:59;;;;;;;;;;;;;;;;;;5066730;28;20265;-63
2022/05/10 12:52:27;;;;;;;;;;;;;;;;;;5069876;28;19928;-65
2022/05/10 12:54:53;;;;;;;;;;;;;;;;;;5070373;28;20637;-65
2022/05/10 12:57:19;;;;;;;;;;;;;;;;;;5069385;28;19936;-60
2022/05/10 12:59:45;;;;;;;;;;;;;;;;;;5066093;28;19924;-70
2022/05/10 13:02:11;;;;;;;;;;;;;;;;;;5104006;28;19928;-67
2022/05/10 13:04:40;;;;;;;;;;;;;;;;;;5070076;28;19929;-67
2022/05/10 13:07:06;;;;;;;;;;;;;;;;;;5068558;28;20580;-63
2022/05/10 13:09:32;;;;;;;;;;;;;;;;;;5070001;28;19927;-62
2022/05/10 13:11:58;;;;;;;;;;;;;;;;;;5071800;28;20023;-64
2022/05/10 13:14:24;;;;;;;;;;;;;;;;;;5069180;28;19968;-62
2022/05/10 13:16:50;;;;;;;;;;;;;;;;;;5070323;28;19983;-62
2022/05/10 13:19:16;;;;;;;;;;;;;;;;;;5070059;28;19952;-62
2022/05/10 13:21:42;;;;;;;;;;;;;;;;;;5067905;28;19928;-62
2022/05/10 13:24:08;;;;;;;;;;;;;;;;;;5070274;28;19928;-62
2022/05/10 13:26:34;;;;;;;;;;;;;;;;;;5079167;28;19929;-62
2022/05/10 13:29:01;;;;;;;;;;;;;;;;;;5077476;28;19945;-69
2022/05/10 13:31:27;;;;;;;;;;;;;;;;;;5073260;28;20665;-61
2022/05/10 13:33:53;;;;;;;;;;;;;;;;;;5072475;28;19927;-61
2022/05/10 13:36:19;;;;;;;;;;;;;;;;;;5073384;28;19947;-61
2022/05/10 13:38:45;;;;;;;;;;;;;;;;;;5068946;28;19928;-70
2022/05/10 13:41:11;;;;;;;;;;;;;;;;;;5070846;28;19921;-70
2022/05/10 13:43:40;;;;;;;;;;;;;;;;;;5072191;28;19925;-70
2022/05/10 13:46:06;;;;;;;;;;;;;;;;;;5072990;28;19976;-71
2022/05/10 13:48:32;;;;;;;;;;;;;;;;;;5074423;28;19929;-70
2022/05/10 13:50:58;;;;;;;;;;;;;;;;;;5071537;28;19920;-72
2022/05/10 13:53:24;;;;;;;;;;;;;;;;;;5073390;28;19924;-71
2022/05/10 13:55:50;;;;;;;;;;;;;;;;;;5078187;28;19932;-72
2022/05/10 13:58:20;;;;;;;;;;;;;;;;;;5069967;28;19925;-69
2022/05/10 14:00:46;;;;;;;;;;;;;;;;;;5066167;28;19963;-67
2022/05/10 14:03:15;;;;;;;;;;;;;;;;;;5068877;28;19920;-73
2022/05/10 14:05:41;;;;;;;;;;;;;;;;;;5070160;28;19928;-73
2022/05/10 14:08:07;;;;;;;;;;;;;;;;;;5099599;27;19941;-71
2022/05/10 14:10:33;;;;;;;;;;;;;;;;;;5069947;28;19981;-72
2022/05/10 14:12:59;;;;;;;;;;;;;;;;;;5098771;28;19935;-73
2022/05/10 14:15:25;;;;;;;;;;;;;;;;;;5069704;28;19925;-72
2022/05/10 14:17:52;;;;;;;;;;;;;;;;;;5080567;28;19924;-73
2022/05/10 14:20:24;;;;;;;;;;;;;;;;;;5101591;28;19932;-73
2022/05/10 14:22:50;;;;;;;;;;;;;;;;;;5070188;28;19928;-73
2022/05/10 14:25:16;;;;;;;;;;;;;;;;;;5099279;28;19940;-73
2022/05/10 14:27:42;;;;;;;;;;;;;;;;;;5068984;28;20042;-72
2022/05/10 14:30:08;;;;;;;;;;;;;;;;;;5095907;28;19995;-73
2022/05/10 14:32:36;;;;;;;;;;;;;;;;;;5069406;28;19955;-72
2022/05/10 14:35:02;;;;;;;;;;;;;;;;;;5065611;28;19981;-74
2022/05/10 14:37:32;;;;;;;;;;;;;;;;;;5098491;28;19920;-73
2022/05/10 14:39:58;;;;;;;;;;;;;;;;;;5069994;28;20005;-73
2022/05/10 14:42:25;;;;;;;;;;;;;;;;;;5068086;28;19939;-71
2022/05/10 14:44:51;;;;;;;;;;;;;;;;;;5074192;28;19979;-73
2022/05/10 14:47:17;;;;;;;;;;;;;;;;;;5082480;28;19966;-74
2022/05/10 14:49:43;;;;;;;;;;;;;;;;;;5078070;28;19966;-73
2022/05/10 14:52:09;;;;;;;;;;;;;;;;;;5077820;28;20409;-73
2022/05/10 14:54:35;;;;;;;;;;;;;;;;;;5079280;28;19920;-72
2022/05/10 14:57:01;;;;;;;;;;;;;;;;;;5105000;28;19974;-64
2022/05/10 14:59:48;;;;;;;;;;;;;;;;;;5072911;28;19929;-63
2022/05/10 15:02:14;;;;;;;;;;;;;;;;;;5079485;28;19925;-70
2022/05/10 15:04:40;;;;;;;;;;;;;;;;;;5110887;27;19931;-67
2022/05/10 15:07:06;;;;;;;;;;;;;;;;;;5082153;28;19920;-67
2022/05/10 15:09:32;;;;;;;;;;;;;;;;;;5107002;27;19927;-67
2022/05/10 15:14:57;;;;;;;;;;;;;;;;;;5069352;28;19925;-69
2022/05/10 15:17:23;;;;;;;;;;;;;;;;;;5073904;28;19929;-69
2022/05/10 15:19:49;;;;;;;;;;;;;;;;;;5067842;28;19921;-64
2022/05/10 15:22:15;;;;;;;;;;;;;;;;;;5065892;28;20456;-63
2022/05/10 15:24:41;;;;;;;;;;;;;;;;;;5071023;28;20426;-63
2022/05/10 15:27:07;;;;;;;;;;;;;;;;;;5070221;28;19968;-62
2022/05/10 15:29:33;;;;;;;;;;;;;;;;;;5076138;28;19920;-62
2022/05/10 15:31:59;;;;;;;;;;;;;;;;;;5065087;28;19928;-65
2022/05/10 15:34:43;;;;;;;;;;;;;;;;;;5073593;28;19924;-69
2022/05/10 15:37:09;;;;;;;;;;;;;;;;;;5065249;28;19920;-68
2022/05/10 15:39:35;;;;;;;;;;;;;;;;;;5048055;28;19974;-69
2022/05/10 15:42:01;;;;;;;;;;;;;;;;;;5081060;28;19920;-69
2022/05/10 15:44:27;;;;;;;;;;;;;;;;;;5071395;28;20463;-69
2022/05/10 15:46:53;;;;;;;;;;;;;;;;;;5050859;28;19920;-69
2022/05/10 15:49:19;;;;;;;;;;;;;;;;;;5073539;28;19929;-68
2022/05/10 15:51:45;;;;;;;;;;;;;;;;;;5083077;28;19925;-68
2022/05/10 15:54:11;;;;;;;;;;;;;;;;;;5085663;28;19927;-68
2022/05/10 15:56:37;;;;;;;;;;;;;;;;;;5084311;28;19932;-68
2022/05/10 15:59:04;;;;;;;;;;;;;;;;;;5083355;28;19920;-68
2022/05/10 16:01:30;;;;;;;;;;;;;;;;;;5080255;28;19938;-69
2022/05/10 16:03:56;;;;;;;;;;;;;;;;;;5078880;28;20503;-69
2022/05/10 16:06:22;;;;;;;;;;;;;;;;;;5081015;28;19970;-69
2022/05/10 16:08:48;;;;;;;;;;;;;;;;;;5083379;28;19957;-68
2022/05/10 16:11:14;;;;;;;;;;;;;;;;;;5084680;28;19920;-68
2022/05/10 16:13:40;;;;;;;;;;;;;;;;;;5080594;28;19927;-69
2022/05/10 16:16:06;;;;;;;;;;;;;;;;;;5080058;28;19963;-69
2022/05/10 16:18:32;;;;;;;;;;;;;;;;;;5082046;28;19920;-66
2022/05/10 16:20:59;;;;;;;;;;;;;;;;;;5081923;28;19928;-64
2022/05/10 16:23:25;;;;;;;;;;;;;;;;;;5078239;28;20033;-66
2022/05/10 16:25:51;;;;;;;;;;;;;;;;;;5081067;28;20398;-70
2022/05/10 16:31:02;;;;;;;;;;;;;;;;;;5078339;28;20366;-69
2022/05/10 16:33:28;;;;;;;;;;;;;;;;;;5077321;28;19996;-70
2022/05/10 16:35:54;;;;;;;;;;;;;;;;;;5073331;28;19920;-69
2022/05/10 16:38:20;;;;;;;;;;;;;;;;;;5083856;28;20014;-69
2022/05/10 16:40:47;;;;;;;;;;;;;;;;;;5084348;28;19921;-69
2022/05/10 16:43:13;;;;;;;;;;;;;;;;;;5081624;28;19920;-69
2022/05/10 16:45:39;;;;;;;;;;;;;;;;;;5082678;28;20391;-69
2022/05/10 16:48:05;;;;;;;;;;;;;;;;;;5082504;28;19927;-71
2022/05/10 16:50:31;;;;;;;;;;;;;;;;;;5084298;28;19920;-69
2022/05/10 16:52:58;;;;;;;;;;;;;;;;;;5084279;28;19920;-70
2022/05/10 16:55:24;;;;;;;;;;;;;;;;;;5083053;28;19975;-70
2022/05/10 16:57:50;;;;;;;;;;;;;;;;;;5084641;28;19920;-69
2022/05/10 17:00:17;;;;;;;;;;;;;;;;;;5082762;28;19953;-69
2022/05/10 17:02:44;;;;;;;;;;;;;;;;;;5081718;28;19924;-69
2022/05/10 17:05:10;;;;;;;;;;;;;;;;;;5084269;28;19924;-67
2022/05/10 17:07:37;;;;;;;;;;;;;;;;;;5084567;28;19921;-64
2022/05/10 17:10:03;;;;;;;;;;;;;;;;;;5082309;28;20219;-63